Time;durP1;ratioP1;P1;durP2;ratioP2;P2;SDS_P1;SDS_P2;PMS_P1;PMS_P2;Temp;Humidity;BMP_temperature;BMP_pressure;BME280_temperature;BME280_humidity;BME280_pressure;Samples;Min_cycle;Max_cycle;Signal;HPM_P1;HPM_P2
2022/12/05 00:00:50;;;;;;;;;45.50;39.50;;;;;3.92;78.15;100679.00;5067528;27;46871;-71
2022/12/05 00:03:15;;;;;;;;;43.50;39.50;;;;;3.89;77.84;100673.81;5057235;27;45443;-72
2022/12/05 00:05:41;;;;;;;;;39.00;36.25;;;;;3.89;77.92;100683.38;5078596;28;45362;-71
2022/12/05 00:08:06;;;;;;;;;40.75;37.00;;;;;3.94;78.03;100685.03;5075174;27;45659;-70
2022/12/05 00:10:35;;;;;;;;;42.75;37.25;;;;;3.95;77.60;100685.91;5059412;27;48219;-71
2022/12/05 00:13:00;;;;;;;;;46.50;38.75;;;;;4.00;78.29;100688.44;5082859;27;45483;-72
2022/12/05 00:15:25;;;;;;;;;51.75;41.75;;;;;4.00;78.11;100691.94;5082046;27;45388;-70
2022/12/05 00:17:51;;;;;;;;;43.75;38.00;;;;;4.02;78.24;100699.72;5097645;27;45389;-71
2022/12/05 00:20:16;;;;;;;;;48.75;43.25;;;;;4.03;78.53;100701.44;5078176;27;45377;-71
2022/12/05 00:22:42;;;;;;;;;50.50;42.00;;;;;4.05;78.17;100699.66;5078945;27;45382;-72
2022/12/05 00:25:08;;;;;;;;;52.00;43.25;;;;;4.01;77.76;100697.97;5078628;27;45461;-70
2022/12/05 00:27:34;;;;;;;;;48.00;40.50;;;;;4.05;78.00;100697.94;5078215;27;45565;-70
2022/12/05 00:29:59;;;;;;;;;47.25;41.25;;;;;4.04;78.34;100703.16;5077960;27;45553;-70
2022/12/05 00:32:27;;;;;;;;;39.50;36.00;;;;;3.95;78.51;100686.75;5077732;27;45177;-70
2022/12/05 00:34:53;;;;;;;;;46.25;39.00;;;;;3.91;78.08;100692.88;5075607;27;45439;-71
2022/12/05 00:37:18;;;;;;;;;44.50;39.50;;;;;3.88;77.80;100692.91;5077802;27;45570;-72
2022/12/05 00:39:44;;;;;;;;;48.25;40.75;;;;;3.75;78.60;100667.91;5077069;27;45399;-70
2022/12/05 00:42:09;;;;;;;;;41.50;38.00;;;;;3.95;78.33;100704.13;5077670;28;45456;-70
2022/12/05 00:44:34;;;;;;;;;41.75;36.50;;;;;3.93;78.04;100703.28;5092724;27;45392;-72
2022/12/05 00:47:00;;;;;;;;;39.75;37.25;;;;;3.83;78.08;100702.50;5077281;27;45567;-70
2022/12/05 00:49:25;;;;;;;;;45.75;39.00;;;;;3.78;78.43;100693.88;5077858;27;45483;-70
2022/12/05 00:51:50;;;;;;;;;46.75;42.00;;;;;3.80;78.66;100697.34;5078872;27;45434;-70
2022/12/05 00:54:16;;;;;;;;;48.25;40.50;;;;;3.77;79.34;100694.78;5076352;28;45378;-72
2022/12/05 00:56:42;;;;;;;;;40.25;36.50;;;;;3.79;78.41;100706.91;5078095;27;45552;-71
2022/12/05 00:59:13;;;;;;;;;41.75;38.25;;;;;3.75;78.32;100707.81;5077117;27;48166;-71
2022/12/05 01:01:42;;;;;;;;;46.50;41.00;;;;;3.51;79.21;100672.47;5077595;27;45465;-71
2022/12/05 01:04:11;;;;;;;;;44.50;40.00;;;;;3.70;78.57;100713.94;5076238;27;45740;-71
2022/12/05 01:06:37;;;;;;;;;40.50;38.00;;;;;3.52;78.66;100687.22;5077213;27;45542;-72
2022/12/05 01:09:04;;;;;;;;;48.00;41.50;;;;;3.59;79.08;100701.88;5076792;27;45318;-71
2022/12/05 01:11:29;;;;;;;;;48.00;41.25;;;;;3.68;78.82;100713.91;5077289;27;45346;-71
2022/12/05 01:13:56;;;;;;;;;44.25;38.75;;;;;3.68;79.65;100715.69;5077712;27;45559;-71
2022/12/05 01:16:33;;;;;;;;;43.25;39.00;;;;;3.68;79.00;100711.31;5077786;27;45496;-71
2022/12/05 01:19:05;;;;;;;;;37.50;35.75;;;;;3.63;79.34;100705.31;5076867;27;46343;-71
2022/12/05 01:21:30;;;;;;;;;45.25;41.25;;;;;3.67;79.50;100721.75;5077822;27;45467;-69
2022/12/05 01:23:56;;;;;;;;;46.25;40.50;;;;;3.63;79.37;100729.59;5078933;27;45313;-71
2022/12/05 01:26:22;;;;;;;;;49.00;43.25;;;;;3.64;79.48;100746.91;5077516;27;45603;-71
2022/12/05 01:28:48;;;;;;;;;53.25;43.00;;;;;3.60;79.70;100734.81;5078484;27;46276;-70
2022/12/05 01:31:22;;;;;;;;;57.75;48.25;;;;;3.64;79.67;100746.91;5076987;27;45287;-71
2022/12/05 01:33:49;;;;;;;;;62.00;50.50;;;;;3.63;79.37;100740.00;5076588;27;45255;-70
2022/12/05 01:36:15;;;;;;;;;55.50;46.50;;;;;3.65;80.11;100752.97;5077055;27;45606;-72
2022/12/05 01:38:41;;;;;;;;;51.25;44.75;;;;;3.65;79.90;100746.03;5078001;27;46953;-70
2022/12/05 01:41:11;;;;;;;;;54.50;46.00;;;;;3.70;79.36;100752.94;5076640;27;45232;-71
2022/12/05 01:43:58;;;;;;;;;54.50;45.75;;;;;3.74;79.29;100752.91;5077919;27;45424;-71
2022/12/05 01:46:26;;;;;;;;;53.50;45.25;;;;;3.62;79.45;100751.28;5076820;27;45660;-71
2022/12/05 01:48:56;;;;;;;;;58.50;46.50;;;;;3.63;79.47;100757.31;5076494;28;45261;-72
2022/12/05 01:51:22;;;;;;;;;55.00;45.75;;;;;3.62;79.06;100763.41;5075478;27;45589;-70
2022/12/05 01:53:48;;;;;;;;;51.00;43.75;;;;;3.68;79.49;100775.50;5078519;27;45287;-71
2022/12/05 01:56:13;;;;;;;;;46.25;40.75;;;;;3.67;79.46;100786.81;5076513;27;45588;-70
2022/12/05 01:58:42;;;;;;;;;52.25;45.50;;;;;3.64;78.96;100783.34;5075840;27;45339;-71
2022/12/05 02:01:07;;;;;;;;;57.25;46.25;;;;;3.68;78.84;100796.31;5076049;27;45430;-71
2022/12/05 02:03:36;;;;;;;;;55.75;46.25;;;;;3.70;79.19;100795.41;5074692;27;45380;-71
2022/12/05 02:06:02;;;;;;;;;49.75;43.50;;;;;3.70;79.21;100798.03;5076805;27;45334;-71
2022/12/05 02:08:28;;;;;;;;;51.00;44.00;;;;;3.63;79.37;100791.16;5074593;27;46170;-71
2022/12/05 02:10:56;;;;;;;;;54.75;46.00;;;;;3.58;79.31;100793.81;5077560;27;45266;-71
2022/12/05 02:13:33;;;;;;;;;46.25;39.75;;;;;3.54;78.83;100792.09;5075883;27;45311;-70
2022/12/05 02:16:45;;;;;;;;;53.00;44.75;;;;;3.53;78.81;100786.91;5077638;27;45480;-70
2022/12/05 02:19:29;;;;;;;;;53.50;45.50;;;;;3.43;79.39;100781.75;5067784;27;48440;-71
2022/12/05 02:22:10;;;;;;;;;49.00;42.25;;;;;3.36;79.42;100780.97;5075650;27;45247;-70
2022/12/05 02:24:57;;;;;;;;;47.50;38.75;;;;;3.35;80.00;100783.56;5076152;27;45494;-72
2022/12/05 02:27:34;;;;;;;;;41.00;38.50;;;;;3.32;80.86;100784.47;5075900;27;45340;-71
2022/12/05 02:30:05;;;;;;;;;55.75;46.00;;;;;3.29;80.67;100783.59;5075800;27;45401;-71
2022/12/05 02:32:52;;;;;;;;;53.75;46.75;;;;;3.26;80.50;100781.03;5078889;27;45359;-71
2022/12/05 02:35:33;;;;;;;;;54.50;46.00;;;;;3.13;81.03;100773.31;5079186;28;45331;-71
2022/12/05 02:38:36;;;;;;;;;57.75;47.00;;;;;3.20;80.15;100788.00;5078860;27;45342;-72
2022/12/05 02:41:12;;;;;;;;;58.75;48.00;;;;;3.07;80.45;100770.75;5077377;27;46368;-70
2022/12/05 02:43:56;;;;;;;;;58.75;49.00;;;;;3.18;81.46;100789.75;5074738;27;45373;-71
2022/12/05 02:46:24;;;;;;;;;59.75;48.25;;;;;3.23;82.18;100792.31;5076135;27;45311;-71
2022/12/05 02:48:56;;;;;;;;;55.75;47.00;;;;;3.24;80.92;100790.56;5074607;28;45524;-71
2022/12/05 02:51:26;;;;;;;;;58.00;47.75;;;;;3.26;81.83;100784.50;5076947;27;45279;-71
2022/12/05 02:53:56;;;;;;;;;55.00;46.75;;;;;3.27;81.04;100787.94;5077992;27;45469;-72
2022/12/05 02:56:23;;;;;;;;;54.00;44.25;;;;;3.21;81.28;100784.50;5078857;27;45367;-72
2022/12/05 02:58:52;;;;;;;;;53.75;46.25;;;;;3.20;81.05;100784.53;5078100;27;45660;-71
2022/12/05 03:01:22;;;;;;;;;54.25;45.50;;;;;3.19;80.15;100791.47;5076270;27;46017;-70
2022/12/05 03:03:47;;;;;;;;;56.25;47.75;;;;;3.19;80.38;100782.81;5076767;27;45227;-70
2022/12/05 03:06:41;;;;;;;;;52.25;45.75;;;;;3.12;80.84;100787.19;5076714;27;45318;-70
2022/12/05 03:09:34;;;;;;;;;57.75;49.00;;;;;3.06;81.27;100789.81;5075151;27;45327;-72
2022/12/05 03:12:11;;;;;;;;;57.00;45.50;;;;;3.06;81.73;100788.06;5076101;27;45581;-71
2022/12/05 03:14:44;;;;;;;;;57.75;48.25;;;;;3.04;81.65;100786.34;5075868;27;45341;-71
2022/12/05 03:17:17;;;;;;;;;57.75;47.25;;;;;2.99;81.28;100788.97;5078962;27;45188;-70
2022/12/05 03:19:57;;;;;;;;;54.25;44.00;;;;;2.96;81.56;100783.78;5076781;27;45326;-71
2022/12/05 03:22:26;;;;;;;;;53.75;45.50;;;;;3.00;81.40;100784.66;5077333;27;46005;-70
2022/12/05 03:24:52;;;;;;;;;54.75;47.00;;;;;2.98;81.85;100792.44;5076158;27;45421;-70
2022/12/05 03:27:27;;;;;;;;;53.50;42.00;;;;;2.97;81.76;100789.88;5076002;27;45400;-71
2022/12/05 03:30:00;;;;;;;;;62.00;51.25;;;;;2.97;81.46;100797.66;5076304;27;45268;-70
2022/12/05 03:32:37;;;;;;;;;60.00;49.25;;;;;2.99;82.01;100793.31;5075529;27;46279;-71
2022/12/05 03:35:14;;;;;;;;;58.75;49.00;;;;;3.07;81.26;100795.00;5075189;27;45495;-70
2022/12/05 03:37:46;;;;;;;;;59.00;47.50;;;;;3.09;81.68;100795.00;5078028;27;45251;-70
2022/12/05 03:40:20;;;;;;;;;53.00;44.00;;;;;3.07;81.60;100797.59;5080429;27;45430;-71
2022/12/05 03:42:53;;;;;;;;;55.50;47.00;;;;;3.06;80.60;100805.41;5083153;27;45422;-71
2022/12/05 03:45:26;;;;;;;;;53.50;45.00;;;;;3.03;81.17;100803.66;5079837;27;45369;-70
2022/12/05 03:48:05;;;;;;;;;55.75;46.00;;;;;3.03;81.57;100808.03;5080627;27;45206;-71
2022/12/05 03:50:31;;;;;;;;;54.25;46.75;;;;;2.90;81.04;100795.09;5079156;27;45363;-69
2022/12/05 03:53:04;;;;;;;;;60.50;47.00;;;;;2.91;81.79;100809.81;5079420;27;45696;-71
2022/12/05 03:55:34;;;;;;;;;46.00;39.50;;;;;2.92;82.03;100815.84;5078861;27;45952;-69
2022/12/05 03:58:16;;;;;;;;;56.00;47.25;;;;;2.70;81.96;100782.19;5078427;28;45260;-70
2022/12/05 04:00:47;;;;;;;;;54.50;46.75;;;;;2.62;80.85;100781.34;5078428;27;45442;-70
2022/12/05 04:03:37;;;;;;;;;53.50;46.00;;;;;2.78;81.30;100816.78;5078130;28;46259;-71
2022/12/05 04:06:09;;;;;;;;;61.25;49.00;;;;;2.84;81.80;100833.22;5079140;27;45269;-70
2022/12/05 04:08:42;;;;;;;;;59.25;48.50;;;;;2.86;81.95;100828.88;5078414;27;45309;-71
2022/12/05 04:11:17;;;;;;;;;52.50;43.50;;;;;2.75;81.39;100811.59;5078601;27;45251;-72
2022/12/05 04:14:08;;;;;;;;;61.25;51.00;;;;;2.87;82.35;100833.22;5078618;27;46129;-71
2022/12/05 04:17:04;;;;;;;;;56.00;48.25;;;;;2.90;81.97;100833.19;5078071;27;45402;-70
2022/12/05 04:22:39;;;;;;;;;57.75;46.75;;;;;2.89;81.01;100834.06;5082293;28;45315;-71
2022/12/05 04:28:33;;;;;;;;;55.00;46.50;;;;;2.91;81.80;100829.72;5079375;28;45468;-72
2022/12/05 04:31:12;;;;;;;;;58.50;48.50;;;;;2.88;80.92;100827.13;5079960;27;45358;-72
2022/12/05 04:33:42;;;;;;;;;59.00;48.50;;;;;2.88;81.87;100835.81;5078432;27;45468;-71
2022/12/05 04:36:37;;;;;;;;;57.75;47.00;;;;;2.83;81.30;100840.16;5078238;27;46262;-71
2022/12/05 04:39:08;;;;;;;;;54.50;45.25;;;;;2.82;81.46;100840.16;5078761;27;45323;-70
2022/12/05 04:41:44;;;;;;;;;60.75;47.25;;;;;2.83;81.77;100844.47;5079954;27;45352;-72
2022/12/05 04:44:14;;;;;;;;;59.25;48.50;;;;;2.86;82.02;100840.16;5079864;27;45316;-71
2022/12/05 04:46:42;;;;;;;;;60.75;49.25;;;;;2.88;82.28;100842.72;5077807;27;46322;-72
2022/12/05 04:49:13;;;;;;;;;48.50;42.25;;;;;2.90;81.53;100846.19;5076853;27;45501;-71
2022/12/05 04:51:40;;;;;;;;;47.25;40.75;;;;;2.88;81.17;100837.53;5077549;27;45278;-72
2022/12/05 04:54:17;;;;;;;;;56.00;46.50;;;;;2.98;81.42;100848.75;5078379;27;45170;-70
2022/12/05 04:56:47;;;;;;;;;59.50;45.50;;;;;3.03;81.59;100857.41;5077591;27;46332;-70
2022/12/05 04:59:13;;;;;;;;;51.25;42.75;;;;;3.02;81.36;100850.47;5077495;27;45317;-70
2022/12/05 05:01:47;;;;;;;;;55.25;46.75;;;;;3.05;81.36;100856.50;5077375;27;45363;-70
2022/12/05 05:04:26;;;;;;;;;56.50;45.50;;;;;3.06;80.57;100866.03;5077356;27;45440;-71
2022/12/05 05:06:52;;;;;;;;;46.50;40.00;;;;;3.03;80.92;100860.00;5078272;27;45641;-69
2022/12/05 05:09:17;;;;;;;;;50.25;42.25;;;;;3.03;81.11;100863.44;5077702;27;45409;-72
2022/12/05 05:11:42;;;;;;;;;57.50;45.50;;;;;3.02;80.71;100856.53;5077188;27;45365;-71
2022/12/05 05:14:08;;;;;;;;;53.75;43.25;;;;;3.09;81.29;100861.69;5077175;27;45420;-71
2022/12/05 05:16:39;;;;;;;;;44.25;39.25;;;;;3.12;80.90;100852.16;5078878;27;46884;-70
2022/12/05 05:19:06;;;;;;;;;47.75;42.25;;;;;3.13;80.34;100866.00;5076573;27;45454;-70
2022/12/05 05:21:39;;;;;;;;;45.00;40.00;;;;;3.13;80.88;100866.88;5077029;27;45332;-70
2022/12/05 05:24:05;;;;;;;;;44.50;40.50;;;;;3.05;81.52;100858.25;5077106;27;45779;-70
2022/12/05 05:26:34;;;;;;;;;47.50;41.25;;;;;3.14;81.65;100871.22;5076512;28;46570;-70
2022/12/05 05:28:59;;;;;;;;;45.75;41.00;;;;;3.03;80.63;100855.66;5076847;27;45378;-70
2022/12/05 05:31:25;;;;;;;;;43.50;40.50;;;;;3.11;80.59;100870.34;5077442;27;45470;-70
2022/12/05 05:33:53;;;;;;;;;43.75;38.25;;;;;3.09;81.11;100874.69;5077990;27;45290;-70
2022/12/05 05:36:19;;;;;;;;;43.25;38.50;;;;;3.08;80.91;100873.84;5076865;27;45369;-70
2022/12/05 05:38:48;;;;;;;;;38.00;35.50;;;;;3.10;81.13;100869.50;5076760;27;45223;-70
2022/12/05 05:41:19;;;;;;;;;41.50;35.25;;;;;3.09;81.06;100870.38;5077799;27;45346;-70
2022/12/05 05:43:45;;;;;;;;;49.50;42.25;;;;;3.11;81.09;100876.44;5076979;27;45362;-71
2022/12/05 05:46:12;;;;;;;;;47.25;39.25;;;;;3.10;81.41;100879.00;5077322;27;45339;-72
2022/12/05 05:48:38;;;;;;;;;44.25;39.00;;;;;3.10;81.42;100884.22;5076345;27;45361;-71
2022/12/05 05:51:05;;;;;;;;;36.00;33.00;;;;;3.09;80.56;100890.28;5092194;27;45371;-70
2022/12/05 05:53:31;;;;;;;;;42.75;38.75;;;;;3.13;81.37;100881.59;5076752;27;45415;-72
2022/12/05 05:56:00;;;;;;;;;42.50;38.25;;;;;3.11;81.50;100880.75;5075879;28;46181;-71
2022/12/05 05:58:26;;;;;;;;;48.25;40.50;;;;;3.17;80.51;100891.13;5077474;27;45373;-71
2022/12/05 06:00:51;;;;;;;;;44.00;39.75;;;;;3.12;80.09;100890.28;5076199;27;45249;-72
2022/12/05 06:03:16;;;;;;;;;48.00;41.75;;;;;3.00;80.95;100886.84;5078939;27;46043;-71
2022/12/05 06:05:42;;;;;;;;;42.75;38.25;;;;;3.09;80.91;100911.97;5078913;27;54617;-73
2022/12/05 06:08:07;;;;;;;;;42.00;38.25;;;;;3.08;80.55;100910.22;5078107;27;45402;-71
2022/12/05 06:10:33;;;;;;;;;38.50;34.00;;;;;3.04;79.94;100904.16;5077226;27;45220;-71
2022/12/05 06:12:59;;;;;;;;;41.25;38.00;;;;;2.99;80.61;100916.31;5076763;27;45510;-71
2022/12/05 06:15:24;;;;;;;;;47.75;42.00;;;;;2.93;80.08;100908.53;5076998;27;46111;-69
2022/12/05 06:17:50;;;;;;;;;43.75;39.75;;;;;2.85;80.37;100897.31;5077372;27;45408;-70
2022/12/05 06:20:15;;;;;;;;;55.00;43.75;;;;;2.92;80.49;100912.00;5080048;27;45447;-71
2022/12/05 06:22:41;;;;;;;;;49.50;41.00;;;;;2.89;80.45;100912.91;5083471;27;45402;-72
2022/12/05 06:25:07;;;;;;;;;56.25;45.75;;;;;2.86;80.15;100914.63;5079663;27;46278;-74
2022/12/05 06:27:33;;;;;;;;;49.25;41.00;;;;;2.86;80.08;100923.31;5076835;27;45422;-71
2022/12/05 06:29:58;;;;;;;;;54.25;44.00;;;;;2.87;80.61;100926.75;5075324;28;45459;-70
2022/12/05 06:32:24;;;;;;;;;35.00;34.25;;;;;2.92;80.54;100927.59;5076350;27;45200;-71
2022/12/05 06:34:49;;;;;;;;;47.50;42.00;;;;;2.95;80.92;100937.13;5075391;27;45773;-71
2022/12/05 06:37:14;;;;;;;;;48.50;41.75;;;;;2.98;81.18;100942.31;5075033;27;52311;-72
2022/12/05 06:39:40;;;;;;;;;46.00;41.50;;;;;2.98;80.41;100943.16;5075530;27;45318;-70
2022/12/05 06:42:05;;;;;;;;;37.75;36.00;;;;;3.04;80.77;100948.34;5075175;27;45587;-71
2022/12/05 06:44:30;;;;;;;;;51.50;40.75;;;;;3.07;79.94;100948.34;5076472;27;45214;-71
2022/12/05 06:46:56;;;;;;;;;35.50;35.50;;;;;3.06;80.59;100949.22;5076959;27;45225;-71
2022/12/05 06:49:25;;;;;;;;;49.25;42.75;;;;;3.12;80.29;100944.84;5078442;27;45361;-71
2022/12/05 06:51:50;;;;;;;;;45.00;39.25;;;;;3.11;79.78;100938.81;5077418;27;45475;-70
2022/12/05 06:54:15;;;;;;;;;41.25;38.75;;;;;3.21;79.83;100950.91;5075687;27;45775;-72
2022/12/05 06:56:41;;;;;;;;;47.00;38.00;;;;;3.21;80.25;100950.06;5075257;27;45366;-71
2022/12/05 06:59:06;;;;;;;;;53.00;44.50;;;;;3.29;80.60;100963.00;5090851;27;45310;-72
2022/12/05 07:01:37;;;;;;;;;49.75;40.75;;;;;3.25;80.46;100949.16;5075497;27;45413;-71
2022/12/05 07:04:23;;;;;;;;;45.25;38.25;;;;;3.22;80.47;100957.84;5075289;27;45397;-71
2022/12/05 07:06:50;;;;;;;;;42.00;38.00;;;;;3.16;79.99;100951.78;5075220;27;45323;-71
2022/12/05 07:09:17;;;;;;;;;43.25;39.75;;;;;3.24;80.33;100964.75;5077472;27;45256;-72
2022/12/05 07:11:46;;;;;;;;;5.25;2.25;;;;;3.28;80.60;100966.47;5077474;27;45393;-70
2022/12/05 07:14:11;;;;;;;;;41.50;38.75;;;;;3.31;80.55;100974.25;5078828;27;46374;-70
2022/12/05 07:16:36;;;;;;;;;45.50;40.25;;;;;3.31;80.26;100976.88;5096176;27;45291;-72
2022/12/05 07:19:02;;;;;;;;;42.50;38.75;;;;;3.35;80.73;100976.88;5079002;27;45408;-71
2022/12/05 07:21:27;;;;;;;;;48.00;41.50;;;;;3.39;80.38;100980.31;5079059;27;45344;-71
2022/12/05 07:23:53;;;;;;;;;46.00;38.00;;;;;3.42;80.83;100977.69;5078294;27;46760;-71
2022/12/05 07:26:22;;;;;;;;;41.75;36.00;;;;;3.42;80.06;100984.63;5078560;27;45429;-71
2022/12/05 07:28:49;;;;;;;;;39.75;38.00;;;;;3.36;80.41;100990.72;5078486;27;45420;-70
2022/12/05 07:31:19;;;;;;;;;43.00;38.00;;;;;3.05;79.88;100950.06;5078859;27;45344;-71
2022/12/05 07:33:45;;;;;;;;;41.75;35.25;;;;;3.20;79.28;100992.53;5078695;27;46642;-73
2022/12/05 07:36:14;;;;;;;;;45.00;40.00;;;;;3.14;79.64;100988.19;5079112;28;45448;-71
2022/12/05 07:38:40;;;;;;;;;46.25;39.00;;;;;3.07;79.17;100992.53;5078460;27;45337;-70
2022/12/05 07:41:12;;;;;;;;;41.00;33.75;;;;;2.99;79.93;100999.47;5079538;27;45206;-71
2022/12/05 07:43:41;;;;;;;;;43.50;38.75;;;;;2.92;80.17;101005.56;5078695;27;45447;-72
2022/12/05 07:46:10;;;;;;;;;39.50;36.50;;;;;2.86;80.31;101006.44;5079533;27;45361;-71
2022/12/05 07:48:35;;;;;;;;;39.00;37.00;;;;;2.83;80.22;101005.56;5081885;27;45437;-74
2022/12/05 07:51:03;;;;;;;;;39.25;37.00;;;;;2.77;80.13;101009.91;5080559;27;45626;-76
2022/12/05 07:53:28;;;;;;;;;42.00;36.75;;;;;2.72;79.55;101005.59;5078943;28;47412;-75
2022/12/05 07:55:54;;;;;;;;;47.50;41.00;;;;;2.69;80.69;101011.66;5076017;27;45544;-73
2022/12/05 07:58:19;;;;;;;;;43.50;36.50;;;;;2.70;80.45;101013.38;5078515;27;45753;-70
2022/12/05 08:00:45;;;;;;;;;40.25;36.50;;;;;2.66;80.38;101005.59;5094538;27;45337;-71
2022/12/05 08:03:10;;;;;;;;;39.50;38.00;;;;;2.66;81.09;101022.03;5078064;27;45405;-71
2022/12/05 08:05:36;;;;;;;;;48.50;41.25;;;;;2.59;81.24;101010.78;5095074;27;45366;-70
2022/12/05 08:08:01;;;;;;;;;54.00;44.50;;;;;2.54;81.34;101006.47;5092814;27;45390;-70
2022/12/05 08:10:27;;;;;;;;;49.00;42.25;;;;;2.65;80.71;101025.50;5080576;27;45283;-73
2022/12/05 08:12:52;;;;;;;;;44.75;40.00;;;;;2.67;81.19;101030.72;5086358;27;46167;-72
2022/12/05 08:15:17;;;;;;;;;42.50;39.00;;;;;2.67;81.14;101030.72;5077549;27;45371;-72
2022/12/05 08:17:43;;;;;;;;;49.25;42.50;;;;;2.61;81.37;101028.97;5077818;27;45210;-66
2022/12/05 08:20:08;;;;;;;;;46.50;40.00;;;;;2.71;82.32;101042.84;5077661;27;45703;-64
2022/12/05 08:22:34;;;;;;;;;47.00;41.00;;;;;2.68;81.36;101033.28;5077883;27;45600;-70
2022/12/05 08:24:59;;;;;;;;;47.00;40.75;;;;;2.78;82.78;101050.59;5079760;27;45409;-68
2022/12/05 08:27:25;;;;;;;;;47.50;42.25;;;;;2.84;82.35;101049.75;5077316;27;45574;-68
2022/12/05 08:29:51;;;;;;;;;47.25;40.00;;;;;2.86;81.51;101048.03;5093037;27;45518;-67
2022/12/05 08:32:16;;;;;;;;;47.50;42.00;;;;;2.85;80.97;101051.50;5077232;27;46917;-67
2022/12/05 08:34:41;;;;;;;;;44.25;38.75;;;;;2.76;81.40;101043.69;5077485;27;45421;-69
2022/12/05 08:37:07;;;;;;;;;38.75;35.75;;;;;2.82;81.61;101053.22;5077653;27;45279;-68
2022/12/05 08:39:32;;;;;;;;;44.00;39.50;;;;;2.71;81.40;101041.09;5078246;27;45627;-69
2022/12/05 08:41:57;;;;;;;;;53.00;43.25;;;;;2.81;80.87;101054.06;5077349;27;45425;-68
2022/12/05 08:44:23;;;;;;;;;53.00;42.25;;;;;2.75;81.64;101058.41;5076797;27;45405;-68
2022/12/05 08:46:49;;;;;;;;;53.00;43.00;;;;;2.69;81.53;101035.03;5078314;27;45372;-69
2022/12/05 08:49:15;;;;;;;;;48.25;41.50;;;;;1.80;81.34;100885.31;5077226;28;45314;-71
2022/12/05 08:51:42;;;;;;;;;53.50;40.00;;;;;2.80;81.77;101049.75;5075517;28;47144;-69
2022/12/05 08:54:08;;;;;;;;;53.25;44.00;;;;;2.76;81.46;101047.16;5076737;27;45417;-71
2022/12/05 08:56:34;;;;;;;;;49.25;42.75;;;;;2.80;82.05;101044.53;5077132;28;45348;-68
2022/12/05 08:59:00;;;;;;;;;46.75;40.00;;;;;2.79;81.35;101051.50;5075592;27;45618;-70
2022/12/05 09:01:30;;;;;;;;;55.75;45.50;;;;;2.73;81.73;101047.16;5077009;27;45326;-69
2022/12/05 09:03:56;;;;;;;;;58.00;44.25;;;;;2.82;81.62;101066.19;5076885;27;45420;-69
2022/12/05 09:06:24;;;;;;;;;56.25;44.75;;;;;2.86;81.57;101073.13;5077303;27;45233;-69
2022/12/05 09:08:54;;;;;;;;;55.25;46.75;;;;;2.87;80.87;101069.66;5077007;27;45363;-70
2022/12/05 09:11:25;;;;;;;;;51.00;42.75;;;;;2.87;81.41;101070.53;5079809;27;45275;-69
2022/12/05 09:13:52;;;;;;;;;57.75;47.00;;;;;2.83;81.61;101074.00;5077768;28;45468;-68
2022/12/05 09:16:24;;;;;;;;;46.75;42.00;;;;;2.61;81.66;101040.22;5075440;28;45474;-69
2022/12/05 09:18:50;;;;;;;;;46.25;39.75;;;;;2.71;81.40;101072.25;5076891;27;45472;-69
2022/12/05 09:21:25;;;;;;;;;51.75;43.25;;;;;2.76;81.94;101074.88;5075121;27;46192;-69
2022/12/05 09:23:51;;;;;;;;;50.50;43.25;;;;;2.77;81.96;101072.25;5076887;28;45371;-69
2022/12/05 09:26:19;;;;;;;;;54.75;46.00;;;;;2.77;81.11;101072.25;5077368;28;45359;-69
2022/12/05 09:28:45;;;;;;;;;54.00;44.00;;;;;2.76;82.11;101072.28;5079456;27;45569;-68
2022/12/05 09:31:14;;;;;;;;;58.25;48.75;;;;;2.83;81.83;101078.31;5076057;27;46256;-68
2022/12/05 09:33:40;;;;;;;;;34.00;31.25;;;;;2.88;82.24;101077.47;5077270;27;45554;-68
2022/12/05 09:36:10;;;;;;;;;49.75;41.50;;;;;2.92;81.80;101083.50;5077263;27;45285;-68
2022/12/05 09:38:35;;;;;;;;;59.75;48.75;;;;;2.95;81.85;101078.31;5077804;27;45307;-68
2022/12/05 09:41:03;;;;;;;;;54.50;46.00;;;;;3.01;81.14;101085.25;5078955;27;46168;-69
2022/12/05 09:43:52;;;;;;;;;58.75;47.25;;;;;3.02;81.03;101087.00;5076972;27;45380;-68
2022/12/05 09:46:47;;;;;;;;;55.00;46.00;;;;;2.78;82.08;101050.59;5075949;27;45354;-70
2022/12/05 09:49:12;;;;;;;;;54.00;45.25;;;;;3.06;80.88;101088.72;5077042;28;45387;-68
2022/12/05 09:51:44;;;;;;;;;53.50;45.75;;;;;3.07;81.46;101088.69;5076537;27;46243;-68
2022/12/05 09:54:11;;;;;;;;;51.50;44.00;;;;;3.12;81.66;101091.31;5078360;27;45424;-68
2022/12/05 09:56:40;;;;;;;;;53.75;45.25;;;;;3.20;81.44;101101.72;5078371;28;45402;-68
2022/12/05 09:59:16;;;;;;;;;55.75;47.25;;;;;3.23;80.85;101099.09;5075765;28;45332;-70
2022/12/05 10:01:59;;;;;;;;;47.00;41.50;;;;;3.26;80.53;101104.31;5076374;27;46118;-67
2022/12/05 10:04:32;;;;;;;;;53.75;45.50;;;;;3.30;80.43;101107.75;5075929;28;45503;-70
2022/12/05 10:07:32;;;;;;;;;41.75;37.00;;;;;3.35;79.91;101106.88;5076014;27;45408;-68
2022/12/05 10:10:35;;;;;;;;;51.50;43.50;;;;;3.43;80.41;101104.25;5071233;27;45461;-69
2022/12/05 10:13:07;;;;;;;;;54.25;45.75;;;;;3.48;80.08;101109.47;5075722;28;46409;-69
2022/12/05 10:15:42;;;;;;;;;60.75;48.25;;;;;3.53;79.07;101107.72;5075623;27;45319;-68
2022/12/05 10:18:08;;;;;;;;;51.50;42.50;;;;;3.59;78.47;101106.81;5076282;27;45540;-70
2022/12/05 10:20:39;;;;;;;;;57.25;47.00;;;;;3.54;78.11;101087.75;5076857;27;45361;-69
2022/12/05 10:23:14;;;;;;;;;59.75;49.00;;;;;3.68;77.99;101108.53;5092637;27;46636;-69
2022/12/05 10:25:40;;;;;;;;;51.50;41.00;;;;;3.70;77.84;101112.84;5077531;27;45462;-69
2022/12/05 10:28:28;;;;;;;;;58.00;48.50;;;;;3.73;78.41;101115.47;5077551;27;45242;-69
2022/12/05 10:30:59;;;;;;;;;52.50;42.00;;;;;3.78;78.49;101115.44;5076000;27;45390;-68
2022/12/05 10:33:37;;;;;;;;;54.00;45.25;;;;;3.79;78.13;101109.38;5075732;27;46090;-68
2022/12/05 10:36:08;;;;;;;;;56.75;48.25;;;;;3.87;77.92;101109.34;5075407;27;45301;-70
2022/12/05 10:38:34;;;;;;;;;60.00;50.50;;;;;3.92;78.19;101105.84;5075276;27;45378;-69
2022/12/05 10:41:04;;;;;;;;;67.25;54.25;;;;;3.97;77.38;101110.16;5075405;27;45361;-69
2022/12/05 10:43:31;;;;;;;;;55.75;47.75;;;;;3.81;76.72;101094.59;5075557;27;45281;-68
2022/12/05 10:45:58;;;;;;;;;58.75;49.50;;;;;3.84;77.00;101093.75;5075103;27;45244;-69
2022/12/05 10:48:25;;;;;;;;;56.75;47.75;;;;;3.91;76.42;101105.88;5075224;27;45616;-68
2022/12/05 10:50:57;;;;;;;;;52.25;44.00;;;;;3.89;75.84;101102.41;5075616;27;45571;-67
2022/12/05 10:53:38;;;;;;;;;54.25;46.25;;;;;3.90;75.99;101102.38;5074950;27;45247;-69
2022/12/05 10:56:44;;;;;;;;;54.75;46.00;;;;;3.87;74.47;101114.56;5075313;27;45242;-68
2022/12/05 10:59:23;;;;;;;;;54.75;45.00;;;;;3.85;74.63;101113.69;5075644;27;45495;-70
2022/12/05 11:01:54;;;;;;;;;55.75;45.25;;;;;3.85;75.92;101118.91;5075627;28;45468;-68
2022/12/05 11:04:21;;;;;;;;;55.75;46.00;;;;;3.87;75.20;101112.81;5076036;27;46366;-68
2022/12/05 11:06:54;;;;;;;;;53.25;45.50;;;;;3.84;75.37;101107.63;5076344;27;45305;-69
2022/12/05 11:09:24;;;;;;;;;49.50;40.00;;;;;3.86;75.24;101108.47;5076108;27;45298;-69
2022/12/05 11:12:20;;;;;;;;;51.25;44.00;;;;;3.94;74.48;101109.31;5075749;27;45455;-69
2022/12/05 11:15:02;;;;;;;;;50.25;43.00;;;;;3.92;74.44;101113.66;5074856;27;46593;-70
2022/12/05 11:17:38;;;;;;;;;49.50;43.75;;;;;3.90;74.31;101112.78;5077058;27;45262;-69
2022/12/05 11:20:19;;;;;;;;;54.25;43.75;;;;;3.92;74.69;101105.84;5078738;27;45537;-69
2022/12/05 11:22:48;;;;;;;;;53.25;42.00;;;;;3.87;74.72;101104.16;5075999;27;45391;-69
2022/12/05 11:25:34;;;;;;;;;54.75;44.75;;;;;3.94;74.47;101119.72;5075278;27;45434;-68
2022/12/05 11:28:19;;;;;;;;;52.50;44.50;;;;;3.98;75.19;101122.31;5073739;27;45464;-68
2022/12/05 11:30:58;;;;;;;;;58.50;49.25;;;;;4.03;74.42;101115.34;5077648;28;45413;-69
2022/12/05 11:33:26;;;;;;;;;51.75;44.50;;;;;4.01;73.48;101115.38;5075706;27;45479;-69
2022/12/05 11:35:54;;;;;;;;;53.50;45.00;;;;;4.00;73.66;101121.44;5075214;27;46367;-69
2022/12/05 11:38:26;;;;;;;;;45.75;40.50;;;;;3.95;74.13;101112.78;5075658;27;45313;-70